Time;durP1;ratioP1;P1;durP2;ratioP2;P2;SDS_P1;SDS_P2;PMS_P1;PMS_P2;Temp;Humidity;BMP_temperature;BMP_pressure;BME280_temperature;BME280_humidity;BME280_pressure;Samples;Min_cycle;Max_cycle;Signal;HPM_P1;HPM_P2
2021/12/11 00:00:26;;;;;;;7.60;3.83;;;5.00;99.30;;;;;;5048460;28;20493;-47
2021/12/11 00:03:00;;;;;;;4.00;3.70;;;5.00;99.20;;;;;;5029218;28;20480;-47
2021/12/11 00:05:28;;;;;;;5.00;4.07;;;5.00;99.10;;;;;;5032193;28;21239;-47
2021/12/11 00:07:55;;;;;;;4.40;3.90;;;5.00;99.10;;;;;;5026340;28;20488;-47
2021/12/11 00:10:26;;;;;;;5.33;4.03;;;5.00;99.30;;;;;;5014343;28;20506;-47
2021/12/11 00:12:58;;;;;;;5.00;4.23;;;5.00;99.20;;;;;;5013271;28;21032;-48
2021/12/11 00:15:35;;;;;;;7.03;5.20;;;5.00;99.30;;;;;;5030024;28;20566;-47
2021/12/11 00:18:04;;;;;;;6.60;4.40;;;5.00;99.30;;;;;;5028958;28;20492;-47
2021/12/11 00:20:35;;;;;;;6.57;4.90;;;5.00;99.00;;;;;;5034610;28;20487;-47
2021/12/11 00:23:02;;;;;;;6.20;4.43;;;5.10;99.10;;;;;;5021618;28;20531;-47
2021/12/11 00:25:31;;;;;;;5.17;4.67;;;5.10;99.10;;;;;;5009138;28;20959;-47
2021/12/11 00:28:05;;;;;;;6.63;4.90;;;5.00;99.00;;;;;;5039956;28;20489;-47
2021/12/11 00:30:35;;;;;;;5.70;4.43;;;5.00;99.20;;;;;;5053303;28;20912;-47
2021/12/11 00:33:05;;;;;;;6.30;4.30;;;5.00;99.20;;;;;;5052705;28;20685;-47
2021/12/11 00:35:34;;;;;;;8.27;4.87;;;5.00;99.20;;;;;;5050324;28;20505;-47
2021/12/11 00:38:04;;;;;;;5.20;4.70;;;5.00;99.00;;;;;;5050510;28;20486;-47
2021/12/11 00:40:33;;;;;;;8.97;5.33;;;5.00;99.10;;;;;;5052355;28;20833;-47
2021/12/11 00:43:04;;;;;;;11.87;8.50;;;5.00;99.10;;;;;;5043674;27;20482;-47
2021/12/11 00:45:34;;;;;;;8.13;5.70;;;5.00;99.00;;;;;;5031976;28;20933;-47
2021/12/11 00:48:04;;;;;;;5.63;4.93;;;5.10;99.40;;;;;;5032215;28;20484;-47
2021/12/11 00:50:36;;;;;;;5.90;4.40;;;5.10;99.10;;;;;;5035361;28;20725;-47
2021/12/11 00:53:08;;;;;;;7.37;4.83;;;5.10;99.00;;;;;;5031309;28;21275;-47
2021/12/11 00:55:39;;;;;;;4.87;4.43;;;5.00;99.00;;;;;;5034773;28;20483;-47
2021/12/11 00:58:10;;;;;;;5.60;4.57;;;5.00;99.00;;;;;;5026431;28;20484;-47
2021/12/11 01:00:41;;;;;;;8.00;6.27;;;5.00;99.00;;;;;;5025423;28;20564;-47
2021/12/11 01:03:08;;;;;;;5.83;5.20;;;4.90;99.00;;;;;;5061632;28;20534;-47
2021/12/11 01:05:38;;;;;;;5.20;4.70;;;4.90;99.10;;;;;;5035360;28;20538;-47
2021/12/11 01:08:24;;;;;;;7.63;5.20;;;4.90;99.10;;;;;;5049243;28;20480;-47
2021/12/11 01:11:02;;;;;;;5.47;4.87;;;4.90;99.10;;;;;;5061573;28;20864;-47
2021/12/11 01:13:31;;;;;;;4.60;4.20;;;4.90;99.00;;;;;;5050677;28;20487;-47
2021/12/11 01:16:05;;;;;;;5.90;5.30;;;4.80;99.10;;;;;;5057387;28;20560;-47
2021/12/11 01:18:37;;;;;;;6.93;4.90;;;4.80;99.10;;;;;;5068752;28;20558;-47
2021/12/11 01:21:26;;;;;;;5.17;4.77;;;4.80;99.00;;;;;;5054676;28;20479;-48
2021/12/11 01:24:10;;;;;;;5.40;4.80;;;4.80;98.90;;;;;;5050607;28;20499;-48
2021/12/11 01:26:44;;;;;;;5.87;5.00;;;4.80;99.00;;;;;;5031637;28;20511;-48
2021/12/11 01:29:11;;;;;;;5.57;4.50;;;4.80;99.00;;;;;;5030066;28;20480;-47
2021/12/11 01:31:38;;;;;;;5.37;4.87;;;4.80;99.00;;;;;;5030590;28;20496;-47
2021/12/11 01:34:06;;;;;;;8.33;5.67;;;4.80;99.10;;;;;;5046706;28;20483;-47
2021/12/11 01:36:34;;;;;;;5.53;4.67;;;4.80;99.10;;;;;;5051452;28;20491;-47
2021/12/11 01:39:08;;;;;;;5.90;5.20;;;4.80;99.10;;;;;;5053409;28;20490;-48
2021/12/11 01:41:36;;;;;;;5.37;4.60;;;4.70;99.10;;;;;;5052051;28;20782;-47
2021/12/11 01:44:10;;;;;;;8.07;4.43;;;4.70;99.20;;;;;;5055491;28;20487;-47
2021/12/11 01:46:39;;;;;;;5.13;4.50;;;4.70;99.20;;;;;;5052211;28;20564;-47
2021/12/11 01:49:10;;;;;;;4.60;3.03;;;4.70;99.30;;;;;;5055988;28;20482;-47
2021/12/11 01:51:41;;;;;;;6.90;6.00;;;4.70;99.20;;;;;;5054240;28;20882;-47
2021/12/11 01:54:17;;;;;;;13.73;4.77;;;4.70;99.30;;;;;;5058237;28;20481;-47
2021/12/11 01:56:47;;;;;;;9.80;6.70;;;4.60;99.20;;;;;;5057543;28;20925;-47
2021/12/11 01:59:19;;;;;;;6.83;4.70;;;4.60;99.30;;;;;;5053428;28;20591;-47
2021/12/11 02:01:49;;;;;;;6.27;4.90;;;4.60;99.50;;;;;;5066921;28;20536;-47
2021/12/11 02:04:18;;;;;;;6.30;5.60;;;4.60;99.50;;;;;;5053833;28;20487;-47
2021/12/11 02:06:48;;;;;;;8.00;5.73;;;4.60;99.40;;;;;;5045188;28;20475;-47
2021/12/11 02:09:19;;;;;;;5.00;4.30;;;4.60;99.50;;;;;;5047444;28;20484;-47
2021/12/11 02:11:48;;;;;;;6.03;4.70;;;4.60;99.40;;;;;;5049137;28;20471;-47
2021/12/11 02:14:21;;;;;;;7.53;6.50;;;4.60;99.50;;;;;;5056079;28;20490;-47
2021/12/11 02:16:50;;;;;;;5.80;5.17;;;4.60;99.50;;;;;;5064959;28;21189;-47
2021/12/11 02:22:45;;;;;;;3.87;3.37;;;4.60;99.40;;;;;;5032716;28;20539;-47
2021/12/11 02:25:16;;;;;;;4.70;4.03;;;4.50;99.40;;;;;;5071100;28;21263;-47
2021/12/11 02:27:49;;;;;;;5.77;5.27;;;4.50;99.40;;;;;;5062453;28;21008;-47
2021/12/11 02:30:23;;;;;;;6.20;5.60;;;4.50;99.60;;;;;;5061806;28;20550;-47
2021/12/11 02:32:54;;;;;;;6.00;5.10;;;4.50;99.60;;;;;;5060836;28;20479;-47
2021/12/11 02:35:26;;;;;;;6.97;5.67;;;4.50;99.50;;;;;;5062066;28;20527;-47
2021/12/11 02:37:57;;;;;;;6.67;4.80;;;4.60;99.60;;;;;;5062245;28;20868;-48
2021/12/11 02:40:28;;;;;;;6.37;5.13;;;4.50;99.40;;;;;;5062076;28;21195;-47
2021/12/11 02:42:59;;;;;;;5.90;5.37;;;4.60;99.50;;;;;;5076188;28;20542;-47
2021/12/11 02:45:30;;;;;;;6.93;5.07;;;4.50;99.30;;;;;;5064692;28;21039;-47
2021/12/11 02:48:00;;;;;;;4.50;4.07;;;4.50;99.40;;;;;;5062568;28;20874;-47
2021/12/11 02:50:32;;;;;;;5.63;4.73;;;4.50;99.40;;;;;;5059583;28;20489;-47
2021/12/11 02:53:06;;;;;;;6.57;5.77;;;4.40;99.40;;;;;;5059693;28;20490;-47
2021/12/11 02:55:36;;;;;;;6.97;5.30;;;4.50;99.60;;;;;;5057888;28;20516;-48
2021/12/11 02:58:07;;;;;;;6.60;5.60;;;4.50;99.40;;;;;;5066602;28;20534;-47
2021/12/11 03:00:38;;;;;;;6.37;5.20;;;4.50;99.40;;;;;;5056184;28;21053;-48
2021/12/11 03:03:08;;;;;;;7.03;5.57;;;4.50;99.50;;;;;;5052160;28;20592;-48
2021/12/11 03:05:42;;;;;;;8.97;5.77;;;4.50;99.40;;;;;;5060789;28;20483;-46
2021/12/11 03:08:14;;;;;;;11.73;8.03;;;4.50;99.40;;;;;;5063380;28;20501;-48
2021/12/11 03:10:43;;;;;;;8.10;6.47;;;4.50;99.50;;;;;;5041197;28;20491;-47
2021/12/11 03:13:10;;;;;;;8.67;6.73;;;4.50;99.30;;;;;;5040932;28;20481;-47
2021/12/11 03:15:37;;;;;;;9.83;7.53;;;4.50;99.50;;;;;;5051263;28;20502;-47
2021/12/11 03:18:05;;;;;;;11.60;6.77;;;4.50;99.40;;;;;;5064568;28;20928;-47
2021/12/11 03:20:33;;;;;;;10.87;8.50;;;4.50;99.40;;;;;;5059611;28;20539;-46
2021/12/11 03:23:00;;;;;;;8.83;6.40;;;4.50;99.30;;;;;;5055776;28;20554;-47
2021/12/11 03:25:30;;;;;;;8.87;7.17;;;4.60;99.40;;;;;;5056570;28;21007;-47
2021/12/11 03:27:58;;;;;;;9.20;6.73;;;4.60;99.40;;;;;;5043358;28;20465;-46
2021/12/11 03:30:27;;;;;;;11.53;7.47;;;4.50;99.40;;;;;;5058289;28;20525;-46
2021/12/11 03:32:59;;;;;;;11.57;6.90;;;4.50;99.50;;;;;;5054815;28;20578;-46
2021/12/11 03:35:27;;;;;;;9.97;7.37;;;4.50;99.40;;;;;;5083273;28;20467;-46
2021/12/11 03:37:54;;;;;;;8.13;6.70;;;4.60;99.50;;;;;;5067428;28;20478;-46
2021/12/11 03:40:21;;;;;;;9.00;7.13;;;4.60;99.80;;;;;;5064920;28;20542;-46
2021/12/11 03:42:52;;;;;;;6.53;5.20;;;4.60;99.50;;;;;;5050246;28;21005;-46
2021/12/11 03:45:28;;;;;;;12.53;7.20;;;4.60;99.30;;;;;;5080191;28;20482;-46
2021/12/11 03:47:58;;;;;;;11.43;8.13;;;4.60;99.40;;;;;;5080021;28;20852;-46
2021/12/11 03:50:28;;;;;;;13.20;7.30;;;4.60;99.30;;;;;;5060618;28;20479;-47
2021/12/11 03:52:55;;;;;;;12.47;8.37;;;4.60;99.40;;;;;;5073588;28;20572;-47
2021/12/11 03:55:26;;;;;;;8.53;6.63;;;4.60;99.60;;;;;;5083571;28;20488;-47
2021/12/11 03:57:59;;;;;;;10.57;7.60;;;4.70;99.40;;;;;;5082446;28;20544;-46
2021/12/11 04:00:29;;;;;;;10.17;8.17;;;4.70;99.40;;;;;;5079207;28;20604;-47
2021/12/11 04:03:04;;;;;;;9.97;8.10;;;4.70;99.50;;;;;;5092909;28;20497;-46
2021/12/11 04:05:32;;;;;;;9.80;8.83;;;4.70;99.40;;;;;;5082201;28;20565;-47
2021/12/11 04:07:59;;;;;;;9.97;8.30;;;4.70;99.20;;;;;;5060083;28;20491;-47
2021/12/11 04:10:27;;;;;;;11.10;8.03;;;4.80;99.50;;;;;;5065614;28;21006;-47
2021/12/11 04:12:58;;;;;;;9.33;7.57;;;4.80;99.30;;;;;;5049173;28;20485;-47
2021/12/11 04:15:25;;;;;;;12.43;8.20;;;4.80;99.20;;;;;;5050004;28;20889;-47
2021/12/11 04:17:54;;;;;;;12.13;9.03;;;4.80;99.30;;;;;;5044849;28;20900;-48
2021/12/11 04:20:23;;;;;;;10.67;7.43;;;4.90;99.30;;;;;;5058443;28;20909;-47
2021/12/11 04:22:50;;;;;;;11.50;8.50;;;4.90;99.20;;;;;;5055982;28;20487;-46
2021/12/11 04:25:19;;;;;;;13.47;9.53;;;4.90;99.20;;;;;;5062576;28;20483;-48
2021/12/11 04:27:47;;;;;;;10.20;8.90;;;4.90;99.30;;;;;;5063157;28;20837;-47
2021/12/11 04:30:17;;;;;;;10.47;8.70;;;4.90;99.20;;;;;;5060293;28;20507;-47
2021/12/11 04:32:44;;;;;;;9.97;8.50;;;4.80;99.00;;;;;;5050850;28;20639;-47
2021/12/11 04:35:17;;;;;;;9.10;7.23;;;4.80;99.00;;;;;;5063810;28;20822;-47
2021/12/11 04:37:44;;;;;;;15.53;9.80;;;4.80;99.20;;;;;;5063455;28;20480;-47
2021/12/11 04:40:17;;;;;;;11.70;8.70;;;4.80;99.20;;;;;;5057316;28;22059;-47
2021/12/11 04:42:52;;;;;;;10.93;8.97;;;4.90;99.40;;;;;;5052511;28;20711;-47
2021/12/11 04:45:30;;;;;;;14.70;9.73;;;4.90;99.10;;;;;;5053128;28;20973;-47
2021/12/11 04:48:02;;;;;;;10.87;8.03;;;5.00;99.20;;;;;;5033645;28;20472;-47
2021/12/11 04:50:40;;;;;;;14.70;10.97;;;4.90;99.10;;;;;;5057340;28;21012;-47
2021/12/11 04:53:21;;;;;;;16.63;9.87;;;5.00;99.20;;;;;;5064130;28;20484;-47
2021/12/11 04:56:17;;;;;;;18.17;11.20;;;5.10;99.10;;;;;;5063710;28;20527;-47
2021/12/11 04:58:52;;;;;;;12.50;10.03;;;5.10;99.10;;;;;;5053233;28;20509;-47
2021/12/11 05:01:40;;;;;;;15.57;9.40;;;5.10;99.00;;;;;;5046019;28;20573;-47
2021/12/11 05:04:33;;;;;;;12.73;9.37;;;5.10;99.00;;;;;;5056839;28;20485;-47
2021/12/11 05:07:05;;;;;;;13.17;10.03;;;5.10;98.90;;;;;;5051521;28;20969;-47
2021/12/11 05:09:39;;;;;;;14.40;9.67;;;5.00;98.90;;;;;;5045930;28;20480;-47
2021/12/11 05:12:16;;;;;;;15.17;10.03;;;5.00;98.80;;;;;;5049613;28;20566;-48
2021/12/11 05:14:44;;;;;;;11.93;9.30;;;5.00;99.10;;;;;;5053675;28;20573;-47
2021/12/11 05:17:13;;;;;;;11.07;8.63;;;5.00;98.90;;;;;;5068460;28;20520;-47
2021/12/11 05:19:42;;;;;;;13.37;10.00;;;5.00;98.90;;;;;;5076502;28;20493;-47
2021/12/11 05:22:10;;;;;;;14.20;10.60;;;5.00;99.00;;;;;;5081795;28;20483;-47
2021/12/11 05:24:39;;;;;;;41.50;21.70;;;5.00;98.90;;;;;;5057870;28;20487;-47
2021/12/11 05:27:06;;;;;;;15.87;10.27;;;5.00;99.00;;;;;;5071911;28;20471;-47
2021/12/11 05:29:34;;;;;;;12.13;9.50;;;5.00;98.90;;;;;;5060865;28;20884;-47
2021/12/11 05:32:04;;;;;;;14.03;10.47;;;4.90;98.90;;;;;;5061558;28;21163;-47
2021/12/11 05:34:32;;;;;;;16.40;9.90;;;4.90;99.00;;;;;;5038982;28;20486;-46
2021/12/11 05:36:59;;;;;;;13.53;10.17;;;4.90;99.10;;;;;;5046990;28;20491;-46
2021/12/11 05:39:26;;;;;;;13.27;9.73;;;4.90;99.10;;;;;;5059714;28;20842;-47
2021/12/11 05:41:54;;;;;;;12.20;10.00;;;5.00;99.10;;;;;;5077031;28;20477;-47
2021/12/11 05:44:24;;;;;;;13.47;9.00;;;5.00;99.00;;;;;;5062813;28;20487;-47
2021/12/11 05:46:52;;;;;;;14.77;10.40;;;4.90;98.80;;;;;;5060691;28;20839;-47
2021/12/11 05:49:20;;;;;;;16.37;11.47;;;4.90;99.00;;;;;;5054662;28;20605;-48
2021/12/11 05:51:51;;;;;;;14.33;10.17;;;4.90;98.90;;;;;;5065252;28;20513;-47
2021/12/11 05:54:21;;;;;;;12.67;10.10;;;5.00;99.20;;;;;;5051667;28;20504;-48
2021/12/11 05:56:48;;;;;;;17.53;12.20;;;5.00;98.90;;;;;;5041869;28;20480;-47
2021/12/11 05:59:18;;;;;;;13.37;9.60;;;4.90;98.90;;;;;;5026168;28;21096;-47
2021/12/11 06:01:47;;;;;;;14.13;11.40;;;4.90;99.00;;;;;;5041058;28;20468;-47
2021/12/11 06:04:16;;;;;;;17.60;12.00;;;4.90;99.00;;;;;;5039764;28;20472;-49
2021/12/11 06:06:44;;;;;;;13.13;10.03;;;4.90;99.10;;;;;;5041823;28;20486;-47
2021/12/11 06:09:15;;;;;;;17.73;11.63;;;4.80;98.90;;;;;;5059639;28;20846;-47
2021/12/11 06:11:45;;;;;;;17.30;11.37;;;4.80;99.00;;;;;;5078212;28;20492;-47
2021/12/11 06:14:11;;;;;;;17.73;12.13;;;4.70;99.00;;;;;;5055324;28;20483;-47
2021/12/11 06:16:38;;;;;;;18.50;11.43;;;4.70;99.10;;;;;;5048794;28;20485;-47
2021/12/11 06:19:06;;;;;;;15.70;11.60;;;4.70;99.10;;;;;;5053111;28;20483;-47
2021/12/11 06:21:35;;;;;;;21.17;12.23;;;4.70;99.10;;;;;;5059974;28;20468;-47
2021/12/11 06:24:02;;;;;;;14.90;11.50;;;4.70;99.10;;;;;;5048973;28;20487;-47
2021/12/11 06:26:30;;;;;;;19.73;13.00;;;4.70;99.00;;;;;;5059072;28;20480;-47
2021/12/11 06:28:57;;;;;;;19.23;11.93;;;4.70;98.90;;;;;;5045869;28;20483;-47
2021/12/11 06:31:24;;;;;;;17.03;11.83;;;4.60;98.90;;;;;;5038843;28;20974;-47
2021/12/11 06:33:53;;;;;;;22.63;12.43;;;4.60;99.00;;;;;;5039087;28;20484;-47
2021/12/11 06:36:23;;;;;;;18.17;12.67;;;4.60;99.00;;;;;;5039802;28;21001;-47
2021/12/11 06:38:53;;;;;;;17.37;10.83;;;4.60;99.30;;;;;;5036928;28;20486;-47
2021/12/11 06:41:23;;;;;;;19.80;12.30;;;4.60;99.10;;;;;;5039495;28;20484;-47
2021/12/11 06:43:51;;;;;;;23.00;12.47;;;4.60;98.90;;;;;;5027697;28;20492;-47
2021/12/11 06:46:18;;;;;;;17.97;12.87;;;4.60;98.80;;;;;;5026437;28;20527;-47
2021/12/11 06:48:45;;;;;;;21.93;13.77;;;4.60;98.90;;;;;;5042373;28;20499;-47
2021/12/11 06:51:12;;;;;;;17.13;12.60;;;4.50;98.90;;;;;;5036005;28;20487;-52
2021/12/11 06:53:42;;;;;;;17.67;11.10;;;4.50;98.90;;;;;;5043087;28;20497;-47
2021/12/11 06:56:11;;;;;;;22.10;13.27;;;4.50;98.90;;;;;;5035549;28;20491;-47
2021/12/11 06:58:38;;;;;;;17.53;11.63;;;4.40;98.80;;;;;;5057603;28;20486;-46
2021/12/11 07:01:09;;;;;;;14.53;9.70;;;4.50;99.10;;;;;;5053978;28;22055;-47
2021/12/11 07:03:36;;;;;;;14.80;10.57;;;4.40;99.00;;;;;;5053914;28;20497;-46
2021/12/11 07:06:05;;;;;;;17.53;11.37;;;4.40;98.70;;;;;;5056217;28;20480;-47
2021/12/11 07:08:33;;;;;;;14.00;10.13;;;4.40;98.90;;;;;;5059747;28;20600;-47
2021/12/11 07:11:01;;;;;;;12.40;9.93;;;4.40;98.60;;;;;;5044548;28;21061;-47
2021/12/11 07:13:28;;;;;;;16.40;11.03;;;4.30;98.80;;;;;;5038597;28;20490;-47
2021/12/11 07:15:56;;;;;;;16.30;11.27;;;4.30;98.80;;;;;;5029815;28;20480;-47
2021/12/11 07:18:25;;;;;;;13.87;9.70;;;4.30;98.70;;;;;;5036088;28;20506;-47
2021/12/11 07:20:52;;;;;;;13.83;9.67;;;4.30;98.60;;;;;;5034404;28;20473;-47
2021/12/11 07:23:19;;;;;;;14.00;9.90;;;4.20;98.70;;;;;;5018957;28;20481;-47
2021/12/11 07:25:50;;;;;;;15.63;10.60;;;4.20;98.70;;;;;;5019529;28;20485;-47
2021/12/11 07:28:17;;;;;;;16.40;10.60;;;4.00;98.40;;;;;;5027581;28;21069;-47
2021/12/11 07:30:47;;;;;;;17.70;12.07;;;3.90;98.30;;;;;;5017482;28;21167;-47
2021/12/11 07:33:14;;;;;;;15.87;10.97;;;3.70;98.30;;;;;;5025071;28;20486;-48
2021/12/11 07:35:44;;;;;;;14.27;9.87;;;3.60;98.50;;;;;;5038389;28;21087;-47
2021/12/11 07:38:11;;;;;;;14.77;9.90;;;3.60;98.90;;;;;;5034526;28;20481;-47
2021/12/11 07:40:40;;;;;;;14.60;9.53;;;3.60;98.80;;;;;;5038992;28;20480;-47
2021/12/11 07:43:08;;;;;;;15.90;10.63;;;3.60;98.90;;;;;;5061910;28;20485;-47
2021/12/11 07:45:35;;;;;;;14.77;11.10;;;3.60;98.90;;;;;;5039503;28;20920;-47
2021/12/11 07:48:03;;;;;;;14.10;9.60;;;3.60;99.00;;;;;;5033799;28;20494;-48
2021/12/11 07:50:30;;;;;;;14.93;10.00;;;3.60;99.10;;;;;;5033508;28;20874;-47
2021/12/11 07:52:58;;;;;;;19.93;11.07;;;3.60;99.00;;;;;;5060285;28;20810;-47
2021/12/11 07:55:25;;;;;;;15.93;10.07;;;3.60;99.00;;;;;;5052024;28;20486;-47
2021/12/11 07:57:53;;;;;;;13.13;9.50;;;3.70;99.00;;;;;;5061770;28;20584;-47
2021/12/11 08:00:23;;;;;;;12.83;9.83;;;3.50;98.30;;;;;;5058842;28;20475;-47
2021/12/11 08:02:50;;;;;;;12.80;9.33;;;3.50;98.60;;;;;;5058844;28;21015;-47
2021/12/11 08:05:17;;;;;;;13.37;10.40;;;3.50;98.60;;;;;;5055635;28;20876;-47
2021/12/11 08:07:45;;;;;;;17.90;10.50;;;3.40;98.60;;;;;;5057165;28;20981;-47
2021/12/11 08:10:16;;;;;;;16.20;11.70;;;3.30;98.80;;;;;;5048858;28;20881;-47
2021/12/11 08:12:45;;;;;;;19.27;12.80;;;3.30;99.00;;;;;;5038440;28;20562;-47
2021/12/11 08:15:14;;;;;;;16.10;10.50;;;3.20;99.20;;;;;;5039784;28;20973;-47
2021/12/11 08:17:41;;;;;;;20.53;12.37;;;3.30;99.80;;;;;;5037807;28;20478;-46
2021/12/11 08:20:12;;;;;;;17.40;9.83;;;3.60;99.90;;;;;;5046720;28;20476;-52
2021/12/11 08:22:38;;;;;;;16.33;11.20;;;4.10;99.80;;;;;;5035898;28;20489;-47
2021/12/11 08:25:07;;;;;;;14.80;7.90;;;4.90;99.10;;;;;;5063804;28;20542;-46
2021/12/11 08:27:35;;;;;;;9.93;7.43;;;5.50;98.10;;;;;;5032036;28;20496;-47
2021/12/11 08:30:03;;;;;;;7.60;5.90;;;6.00;97.10;;;;;;5041904;28;20489;-47
2021/12/11 08:32:30;;;;;;;11.43;6.93;;;6.50;96.50;;;;;;5060239;28;20481;-47
2021/12/11 08:34:56;;;;;;;13.53;9.50;;;6.80;95.70;;;;;;5055232;28;20486;-47
2021/12/11 08:37:24;;;;;;;22.60;12.03;;;7.20;95.70;;;;;;5036643;28;20536;-47
2021/12/11 08:39:52;;;;;;;13.93;9.80;;;7.40;95.00;;;;;;5020911;28;20641;-48
2021/12/11 08:42:23;;;;;;;12.40;9.83;;;7.70;94.60;;;;;;5021991;28;20892;-48
2021/12/11 08:44:59;;;;;;;12.30;9.60;;;8.10;95.00;;;;;;5037787;28;21280;-47
2021/12/11 08:47:27;;;;;;;12.63;10.10;;;8.50;94.20;;;;;;5024575;28;20478;-48
2021/12/11 08:49:55;;;;;;;11.27;9.20;;;8.80;94.20;;;;;;5040942;28;21116;-48
2021/12/11 08:52:24;;;;;;;11.10;9.60;;;9.10;93.40;;;;;;5040173;28;20479;-47
2021/12/11 08:54:52;;;;;;;13.27;9.77;;;9.10;93.20;;;;;;5043026;28;20486;-48
2021/12/11 08:57:23;;;;;;;10.83;8.97;;;9.10;93.00;;;;;;5076170;28;20479;-48
2021/12/11 08:59:55;;;;;;;11.87;9.53;;;9.10;92.70;;;;;;5057416;28;20830;-47
2021/12/11 09:02:25;;;;;;;13.90;9.37;;;9.10;92.70;;;;;;5055222;28;21049;-47
2021/12/11 09:04:57;;;;;;;14.77;9.80;;;9.20;93.50;;;;;;5050603;28;20543;-48
2021/12/11 09:07:31;;;;;;;12.80;9.63;;;9.30;93.10;;;;;;5062071;28;20819;-47
2021/12/11 09:10:03;;;;;;;12.13;10.93;;;9.40;93.30;;;;;;5058098;28;20565;-48
2021/12/11 09:12:35;;;;;;;13.73;10.63;;;9.20;93.20;;;;;;5056486;28;20478;-47
2021/12/11 09:15:08;;;;;;;11.77;10.50;;;8.90;93.30;;;;;;5044265;28;20488;-52
2021/12/11 09:17:38;;;;;;;11.97;9.83;;;8.60;93.90;;;;;;5051749;28;20485;-47
2021/12/11 09:20:09;;;;;;;18.43;11.37;;;8.40;94.10;;;;;;5051959;28;21199;-47
2021/12/11 09:22:40;;;;;;;14.30;11.17;;;7.90;94.00;;;;;;5059646;28;20473;-47
2021/12/11 09:25:14;;;;;;;13.87;10.53;;;7.60;94.90;;;;;;5053118;28;20486;-47
2021/12/11 09:27:45;;;;;;;12.40;9.80;;;7.40;95.20;;;;;;5059819;28;20477;-47
2021/12/11 09:30:17;;;;;;;16.60;10.60;;;7.10;95.00;;;;;;5062273;28;20466;-47
2021/12/11 09:32:47;;;;;;;16.40;12.30;;;7.00;95.50;;;;;;5055223;28;20471;-48
2021/12/11 09:35:21;;;;;;;15.03;10.33;;;7.00;95.90;;;;;;5068655;28;20513;-48
2021/12/11 09:37:50;;;;;;;16.30;11.83;;;7.00;96.40;;;;;;5058951;28;21059;-47
2021/12/11 09:40:31;;;;;;;16.27;11.40;;;6.80;95.60;;;;;;5056538;28;20499;-47
2021/12/11 09:42:57;;;;;;;15.30;12.17;;;6.80;96.30;;;;;;5069261;28;20474;-47
2021/12/11 09:45:28;;;;;;;13.40;10.90;;;6.90;96.70;;;;;;5061259;28;21097;-47
2021/12/11 09:47:59;;;;;;;17.17;10.53;;;6.90;96.00;;;;;;5061351;28;20490;-47
2021/12/11 09:50:31;;;;;;;14.03;10.83;;;6.80;95.40;;;;;;5052116;28;20497;-48
2021/12/11 09:52:59;;;;;;;15.07;11.10;;;6.70;95.70;;;;;;5074767;28;20511;-48
2021/12/11 09:55:29;;;;;;;16.03;11.73;;;6.50;95.90;;;;;;5061290;28;20481;-47
2021/12/11 09:58:01;;;;;;;12.60;9.50;;;6.40;96.10;;;;;;5057959;28;20747;-48
2021/12/11 10:00:40;;;;;;;17.50;11.77;;;6.30;96.10;;;;;;5055789;28;20594;-48
2021/12/11 10:03:08;;;;;;;10.27;7.20;;;6.20;96.20;;;;;;5055474;28;20545;-47
2021/12/11 10:05:44;;;;;;;16.63;10.57;;;6.20;96.50;;;;;;5061070;28;21345;-47
2021/12/11 10:08:28;;;;;;;15.80;10.93;;;6.10;96.60;;;;;;5080140;28;20909;-48
2021/12/11 10:11:04;;;;;;;14.70;10.03;;;6.00;96.90;;;;;;5049641;28;21188;-47
2021/12/11 10:13:34;;;;;;;15.37;10.40;;;6.00;97.20;;;;;;5060537;28;20833;-47
2021/12/11 10:16:03;;;;;;;13.97;10.33;;;5.90;97.10;;;;;;5059485;28;20833;-48
2021/12/11 10:18:31;;;;;;;18.27;10.60;;;5.90;97.20;;;;;;5062738;28;20571;-48
2021/12/11 10:21:01;;;;;;;13.07;6.63;;;5.90;97.20;;;;;;5076012;28;20990;-47
2021/12/11 10:23:31;;;;;;;17.70;11.80;;;5.80;97.10;;;;;;5050179;28;20473;-47
2021/12/11 10:26:01;;;;;;;17.77;11.13;;;5.70;97.30;;;;;;5040231;28;21312;-47
2021/12/11 10:28:31;;;;;;;15.93;10.23;;;5.70;97.60;;;;;;5039531;28;21032;-47
2021/12/11 10:31:06;;;;;;;17.87;11.33;;;5.70;97.20;;;;;;5056910;28;20472;-47
2021/12/11 10:33:35;;;;;;;13.70;10.70;;;5.70;97.60;;;;;;5027719;28;20552;-47
2021/12/11 10:36:05;;;;;;;20.20;11.40;;;5.70;97.70;;;;;;5039398;28;20476;-47
2021/12/11 10:38:32;;;;;;;15.90;10.77;;;5.70;97.80;;;;;;5048807;28;20489;-47
2021/12/11 10:41:04;;;;;;;16.40;11.60;;;5.60;98.00;;;;;;5052622;28;20982;-48
2021/12/11 10:43:37;;;;;;;16.27;11.10;;;5.60;98.10;;;;;;5049350;28;20476;-47
2021/12/11 10:46:06;;;;;;;15.43;11.27;;;5.60;98.20;;;;;;5042736;28;20485;-47
2021/12/11 10:48:37;;;;;;;24.67;11.93;;;5.60;98.00;;;;;;5024147;28;20948;-47
2021/12/11 10:51:07;;;;;;;17.30;12.63;;;5.60;97.80;;;;;;5066121;28;20483;-56
2021/12/11 10:53:35;;;;;;;17.77;11.13;;;5.70;97.70;;;;;;5040597;28;21032;-47
2021/12/11 10:56:05;;;;;;;18.50;12.67;;;5.70;97.70;;;;;;5066340;28;20470;-47
2021/12/11 10:58:37;;;;;;;15.50;11.70;;;5.70;97.60;;;;;;5065124;28;20479;-47
2021/12/11 11:01:09;;;;;;;17.33;12.87;;;5.70;97.90;;;;;;5037246;28;20473;-47
2021/12/11 11:03:40;;;;;;;19.23;11.67;;;5.70;97.80;;;;;;5028275;28;20474;-47
2021/12/11 11:06:08;;;;;;;18.30;13.63;;;5.70;98.10;;;;;;5019558;28;20507;-47
2021/12/11 11:08:35;;;;;;;20.50;12.50;;;5.60;98.20;;;;;;5046194;28;20513;-47
2021/12/11 11:11:12;;;;;;;21.60;15.33;;;5.50;98.50;;;;;;5035014;28;20482;-47
2021/12/11 11:13:40;;;;;;;16.47;9.90;;;5.50;98.50;;;;;;5040445;28;20991;-47
2021/12/11 11:16:08;;;;;;;18.13;11.17;;;5.60;98.60;;;;;;5069284;28;20563;-47
2021/12/11 11:18:37;;;;;;;17.47;12.03;;;5.70;98.50;;;;;;5078780;28;20472;-47
2021/12/11 11:21:08;;;;;;;17.17;11.97;;;5.80;98.70;;;;;;5042141;28;20516;-47
2021/12/11 11:23:35;;;;;;;11.30;7.87;;;5.80;98.50;;;;;;5013999;28;20493;-47
2021/12/11 11:26:07;;;;;;;21.63;12.77;;;5.80;98.10;;;;;;5030656;28;20530;-47
2021/12/11 11:28:34;;;;;;;17.23;10.80;;;5.90;97.90;;;;;;5026463;28;20511;-46
2021/12/11 11:31:06;;;;;;;19.87;13.10;;;5.90;97.60;;;;;;5020638;28;20536;-47
2021/12/11 11:33:34;;;;;;;20.03;12.83;;;6.00;97.90;;;;;;5030581;28;20516;-47
2021/12/11 11:36:09;;;;;;;22.40;13.47;;;6.00;98.00;;;;;;5049712;28;20958;-47
2021/12/11 11:38:41;;;;;;;18.90;12.57;;;6.00;98.00;;;;;;5058861;28;21000;-47
2021/12/11 11:41:10;;;;;;;20.03;13.60;;;6.00;98.10;;;;;;5041564;28;20490;-47
2021/12/11 11:43:38;;;;;;;22.13;14.40;;;6.00;98.30;;;;;;5027350;28;20476;-48
2021/12/11 11:46:05;;;;;;;17.10;10.97;;;6.10;98.20;;;;;;5029612;28;20497;-47
2021/12/11 11:48:37;;;;;;;18.90;13.10;;;5.90;97.80;;;;;;5047720;28;20991;-47
2021/12/11 11:51:09;;;;;;;24.00;13.93;;;5.80;97.90;;;;;;5034826;28;20489;-48
2021/12/11 11:53:36;;;;;;;22.90;12.63;;;5.80;98.40;;;;;;5036244;28;20978;-47
2021/12/11 11:56:06;;;;;;;15.90;11.97;;;5.80;98.60;;;;;;5038121;28;20481;-47
2021/12/11 11:58:34;;;;;;;20.23;13.20;;;5.80;98.40;;;;;;5047776;28;20493;-47
2021/12/11 12:01:07;;;;;;;21.87;13.60;;;5.80;98.70;;;;;;5046316;28;20996;-48
2021/12/11 12:03:36;;;;;;;22.07;13.27;;;5.90;99.00;;;;;;5029122;28;20480;-47
2021/12/11 12:06:10;;;;;;;19.70;12.40;;;6.00;98.80;;;;;;5036029;28;20489;-47
2021/12/11 12:08:37;;;;;;;15.30;10.10;;;6.10;98.80;;;;;;5028440;28;20483;-48
2021/12/11 12:11:06;;;;;;;19.50;10.40;;;6.10;98.50;;;;;;5036055;28;20559;-47
2021/12/11 12:13:33;;;;;;;15.33;10.47;;;6.10;98.50;;;;;;5028841;28;20485;-47
2021/12/11 12:16:04;;;;;;;16.67;10.80;;;6.00;98.60;;;;;;5044495;28;20476;-48
2021/12/11 12:18:31;;;;;;;20.57;12.20;;;6.00;98.50;;;;;;5048145;28;20603;-47
2021/12/11 12:20:59;;;;;;;17.20;9.63;;;6.00;98.90;;;;;;5040618;28;20483;-48
2021/12/11 12:23:31;;;;;;;18.97;12.70;;;6.10;98.60;;;;;;5043318;28;20488;-47
2021/12/11 12:26:01;;;;;;;14.30;10.67;;;6.00;98.50;;;;;;5050362;28;20481;-48
2021/12/11 12:28:28;;;;;;;14.37;11.17;;;6.00;98.60;;;;;;5040671;28;20485;-46
2021/12/11 12:30:59;;;;;;;15.07;10.57;;;6.00;98.80;;;;;;5045275;28;20486;-47
2021/12/11 12:33:27;;;;;;;15.50;9.70;;;6.00;98.80;;;;;;5039881;28;20511;-47
2021/12/11 12:35:54;;;;;;;13.70;10.80;;;6.00;98.70;;;;;;5033110;28;20956;-47
2021/12/11 12:38:23;;;;;;;11.47;8.33;;;6.00;98.60;;;;;;5050604;28;20494;-47
2021/12/11 12:40:59;;;;;;;13.83;9.17;;;6.00;98.20;;;;;;5015367;28;20479;-48
2021/12/11 12:46:19;;;;;;;11.63;7.20;;;6.00;98.80;;;;;;5022795;28;20475;-47
2021/12/11 12:48:46;;;;;;;11.73;8.50;;;5.90;98.80;;;;;;5033010;28;20554;-47
2021/12/11 12:51:14;;;;;;;12.57;8.73;;;5.90;98.80;;;;;;5036208;28;20488;-47
2021/12/11 12:53:44;;;;;;;9.57;6.83;;;5.90;99.20;;;;;;5067030;28;20478;-47
2021/12/11 12:56:18;;;;;;;10.83;8.87;;;5.90;99.10;;;;;;5039896;28;20498;-47
2021/12/11 12:58:49;;;;;;;10.83;7.10;;;5.90;99.20;;;;;;5057945;28;20481;-47
2021/12/11 13:01:19;;;;;;;11.80;7.47;;;6.00;99.20;;;;;;5039701;28;20484;-48
2021/12/11 13:03:49;;;;;;;9.87;7.03;;;5.90;99.00;;;;;;5049131;28;20482;-47
2021/12/11 13:06:19;;;;;;;10.27;7.07;;;5.90;99.20;;;;;;5026399;28;20481;-47